createdAt,value
2019-05-14T00:00:17.933Z,1.57
2019-05-14T00:02:44.900Z,1.80
2019-05-14T00:05:12.265Z,1.50
2019-05-14T00:07:41.392Z,1.67
2019-05-14T00:10:08.266Z,1.80
2019-05-14T00:12:35.224Z,1.73
2019-05-14T00:15:02.344Z,2.50
2019-05-14T00:17:29.355Z,2.23
2019-05-14T00:20:06.337Z,1.83
2019-05-14T00:22:25.153Z,1.30
2019-05-14T00:24:52.204Z,1.47
2019-05-14T00:27:19.237Z,1.93
2019-05-14T00:29:46.169Z,1.30
2019-05-14T00:32:13.204Z,1.63
2019-05-14T00:34:42.149Z,1.63
2019-05-14T00:37:11.192Z,1.90
2019-05-14T00:39:37.846Z,2.00
2019-05-14T00:42:04.815Z,1.63
2019-05-14T00:44:32.305Z,1.70
2019-05-14T00:47:01.990Z,1.70
2019-05-14T00:49:28.485Z,1.90
2019-05-14T00:51:55.476Z,1.80
2019-05-14T00:54:22.435Z,1.73
2019-05-14T00:56:49.417Z,1.87
2019-05-14T00:59:16.359Z,1.93
2019-05-14T01:01:43.344Z,2.30
2019-05-14T01:04:11.813Z,2.27
2019-05-14T01:06:38.869Z,2.23
2019-05-14T01:09:06.043Z,1.80
2019-05-14T01:11:33.001Z,2.03
2019-05-14T01:14:01.759Z,1.90
2019-05-14T01:16:28.823Z,1.90
2019-05-14T01:18:55.802Z,1.90
2019-05-14T01:21:22.726Z,2.00
2019-05-14T01:23:51.398Z,1.80
2019-05-14T01:26:18.460Z,2.47
2019-05-14T01:28:45.432Z,1.60
2019-05-14T01:31:14.778Z,2.20
2019-05-14T01:33:41.252Z,2.23
2019-05-14T01:36:08.175Z,2.47
2019-05-14T01:38:35.147Z,2.33
2019-05-14T01:41:02.188Z,2.50
2019-05-14T01:43:31.285Z,2.00
2019-05-14T01:45:58.017Z,2.50
2019-05-14T01:48:25.008Z,2.30
2019-05-14T01:50:52.246Z,1.83
2019-05-14T01:53:19.409Z,1.90
2019-05-14T01:55:46.942Z,2.13
2019-05-14T01:58:13.916Z,2.40
2019-05-14T02:00:41.603Z,2.50
2019-05-14T02:03:08.736Z,2.50
2019-05-14T02:05:35.664Z,1.97
2019-05-14T02:08:02.627Z,2.00
2019-05-14T02:10:31.483Z,2.57
2019-05-14T02:12:58.440Z,2.83
2019-05-14T02:15:36.300Z,2.70
2019-05-14T02:17:54.210Z,2.50
2019-05-14T02:20:21.676Z,2.83
2019-05-14T02:22:48.735Z,3.00
2019-05-14T02:25:15.669Z,2.07
2019-05-14T02:27:42.597Z,2.80
2019-05-14T02:30:10.791Z,2.17
2019-05-14T02:32:40.406Z,2.67
2019-05-14T02:35:09.875Z,2.80
2019-05-14T02:37:39.266Z,2.70
2019-05-14T02:40:05.186Z,3.10
2019-05-14T02:42:32.162Z,2.60
2019-05-14T02:44:59.412Z,2.90
2019-05-14T02:47:29.666Z,3.20
2019-05-14T02:49:55.307Z,3.00
2019-05-14T02:52:22.242Z,2.63
2019-05-14T02:54:49.749Z,2.93
2019-05-14T02:57:19.713Z,3.07
2019-05-14T02:59:45.596Z,3.50
2019-05-14T03:02:12.521Z,3.00
2019-05-14T03:04:39.982Z,3.63
2019-05-14T03:07:10.527Z,3.80
2019-05-14T03:09:39.950Z,3.63
2019-05-14T03:12:04.870Z,4.13
2019-05-14T03:14:31.824Z,3.83
2019-05-14T03:16:59.592Z,4.40
2019-05-14T03:19:29.593Z,5.00
2019-05-14T03:21:55.555Z,4.10
2019-05-14T03:24:22.519Z,5.30
2019-05-14T03:26:50.188Z,4.87
2019-05-14T03:29:19.648Z,4.90
2019-05-14T03:31:51.901Z,5.10
2019-05-14T03:34:15.058Z,5.23
2019-05-14T03:36:43.390Z,5.30
2019-05-14T03:39:10.944Z,4.77
2019-05-14T03:41:39.745Z,5.27
2019-05-14T03:44:09.903Z,4.50
2019-05-14T03:46:45.847Z,4.50
2019-05-14T03:49:04.782Z,5.17
2019-05-14T03:51:31.707Z,4.93
2019-05-14T03:54:05.849Z,4.60
2019-05-14T03:56:29.907Z,4.97
2019-05-14T03:58:59.662Z,4.23
2019-05-14T04:01:29.323Z,5.03
2019-05-14T04:03:54.784Z,5.80
2019-05-14T04:06:24.511Z,4.90
2019-05-14T04:08:52.053Z,5.17
2019-05-14T04:11:20.930Z,5.10
2019-05-14T04:13:51.380Z,5.00
2019-05-14T04:16:21.458Z,5.57
2019-05-14T04:18:50.399Z,4.50
2019-05-14T04:21:20.480Z,5.60
2019-05-14T04:23:50.833Z,4.93
2019-05-14T04:26:20.119Z,6.10
2019-05-14T04:28:50.020Z,5.23
2019-05-14T04:31:19.228Z,5.40
2019-05-14T04:33:50.071Z,5.30
2019-05-14T04:36:19.562Z,6.23
2019-05-14T04:38:51.480Z,5.27
2019-05-14T04:41:19.477Z,5.50
2019-05-14T04:43:49.655Z,4.80
2019-05-14T04:46:15.211Z,6.20
2019-05-14T04:48:43.815Z,5.00
2019-05-14T04:51:11.020Z,5.10
2019-05-14T04:53:39.399Z,5.33
2019-05-14T04:56:09.823Z,5.33
2019-05-14T04:58:35.595Z,5.50
2019-05-14T05:01:02.561Z,4.90
2019-05-14T05:03:31.382Z,6.53
2019-05-14T05:05:59.045Z,5.60
2019-05-14T05:08:26.210Z,5.63
2019-05-14T05:10:53.178Z,4.90
2019-05-14T05:13:20.136Z,5.60
2019-05-14T05:15:48.670Z,4.83
2019-05-14T05:18:18.425Z,4.90
2019-05-14T05:20:44.732Z,6.23
2019-05-14T05:23:11.778Z,6.40
2019-05-14T05:25:38.744Z,6.07
2019-05-14T05:28:05.704Z,4.80
2019-05-14T05:30:32.701Z,5.70
2019-05-14T05:32:59.838Z,5.50
2019-05-14T05:35:29.156Z,5.53
2019-05-14T05:37:58.232Z,4.63
2019-05-14T05:40:24.721Z,5.50
2019-05-14T05:42:52.914Z,5.20
2019-05-14T05:45:19.894Z,5.67
2019-05-14T05:47:55.256Z,6.10
2019-05-14T05:50:15.865Z,4.77
2019-05-14T05:52:42.833Z,5.93
2019-05-14T05:55:09.989Z,4.70
2019-05-14T05:57:39.224Z,5.70
2019-05-14T06:00:06.325Z,5.77
2019-05-14T06:02:33.307Z,6.00
2019-05-14T06:05:00.366Z,4.50
2019-05-14T06:07:28.891Z,4.57
2019-05-14T06:09:56.091Z,5.37
2019-05-14T06:12:23.078Z,6.73
2019-05-14T06:14:50.018Z,5.60
2019-05-14T06:17:19.162Z,5.83
2019-05-14T06:19:45.831Z,5.60
2019-05-14T06:22:12.898Z,6.80
2019-05-14T06:24:39.837Z,5.07
2019-05-14T06:27:09.169Z,4.77
2019-05-14T06:29:38.120Z,6.67
2019-05-14T06:32:04.526Z,5.70
2019-05-14T06:34:31.463Z,5.97
2019-05-14T06:36:59.144Z,5.50
2019-05-14T06:39:28.225Z,5.07
2019-05-14T06:41:55.110Z,6.13
2019-05-14T06:44:22.058Z,5.93
2019-05-14T06:46:52.385Z,6.00
2019-05-14T06:49:18.349Z,5.47
2019-05-14T06:51:45.525Z,6.10
2019-05-14T06:54:12.467Z,4.57
2019-05-14T06:56:39.420Z,5.00
2019-05-14T06:59:08.813Z,5.20
2019-05-14T07:01:35.255Z,5.30
2019-05-14T07:04:02.223Z,5.63
2019-05-14T07:06:29.289Z,5.50
2019-05-14T07:08:58.674Z,5.20
2019-05-14T07:11:25.148Z,5.53
2019-05-14T07:13:52.093Z,5.23
2019-05-14T07:16:19.850Z,5.10
2019-05-14T07:18:52.975Z,5.37
2019-05-14T07:21:18.480Z,5.13
2019-05-14T07:23:44.803Z,4.90
2019-05-14T07:26:11.753Z,4.83
2019-05-14T07:28:42.235Z,5.60
2019-05-14T07:31:09.804Z,5.13
2019-05-14T07:33:38.836Z,5.37
2019-05-14T07:36:05.311Z,5.27
2019-05-14T07:38:32.271Z,5.60
2019-05-14T07:40:59.182Z,5.80
2019-05-14T07:43:28.544Z,4.60
2019-05-14T07:45:54.991Z,5.40
2019-05-14T07:48:21.996Z,4.67
2019-05-14T07:50:51.896Z,5.47
2019-05-14T07:53:18.059Z,4.70
2019-05-14T07:55:45.210Z,4.80
2019-05-14T07:58:12.208Z,5.07
2019-05-14T08:00:40.204Z,5.13
2019-05-14T08:03:08.256Z,5.60
2019-05-14T08:05:35.214Z,5.07
2019-05-14T08:08:02.645Z,5.30
2019-05-14T08:10:29.648Z,4.70
2019-05-14T08:12:58.780Z,5.10
2019-05-14T08:15:25.464Z,5.37
2019-05-14T08:17:52.435Z,5.07
2019-05-14T08:20:20.384Z,4.60
2019-05-14T08:22:49.014Z,4.97
2019-05-14T08:25:16.264Z,5.57
2019-05-14T08:27:43.247Z,4.60
2019-05-14T08:30:10.494Z,4.77
2019-05-14T08:32:39.078Z,4.10
2019-05-14T08:35:08.890Z,4.20
2019-05-14T08:37:35.731Z,3.53
2019-05-14T08:40:03.035Z,4.27
2019-05-14T08:42:34.072Z,4.10
2019-05-14T08:44:59.347Z,4.97
2019-05-14T08:47:28.980Z,3.93
2019-05-14T08:49:55.387Z,3.73
2019-05-14T08:52:22.347Z,3.43
2019-05-14T08:55:04.362Z,3.40
2019-05-14T08:57:19.116Z,3.30
2019-05-14T08:59:48.602Z,3.90
2019-05-14T09:02:15.078Z,4.20
2019-05-14T09:04:44.950Z,3.50
2019-05-14T09:07:12.115Z,3.17
2019-05-14T09:09:39.089Z,3.63
2019-05-14T09:12:12.177Z,2.83
2019-05-14T09:14:34.992Z,2.77
2019-05-14T09:17:01.926Z,2.40
2019-05-14T09:19:28.904Z,2.20
2019-05-14T09:21:58.617Z,2.47
2019-05-14T09:24:24.723Z,2.70
2019-05-14T09:26:51.704Z,2.40
2019-05-14T09:29:25.488Z,3.03
2019-05-14T09:31:49.439Z,2.40
2019-05-14T09:34:16.487Z,2.20
2019-05-14T09:36:43.420Z,3.63
2019-05-14T09:39:12.339Z,2.67
2019-05-14T09:41:39.394Z,2.80
2019-05-14T09:44:06.404Z,2.23
2019-05-14T09:46:33.359Z,2.77
2019-05-14T09:49:00.313Z,2.47
2019-05-14T09:51:28.797Z,2.10
2019-05-14T09:53:55.955Z,2.20
2019-05-14T09:56:23.219Z,1.53
2019-05-14T09:58:50.178Z,1.47
2019-05-14T10:01:19.396Z,1.50
2019-05-14T10:03:45.991Z,1.70
2019-05-14T10:06:12.968Z,2.67
2019-05-14T10:08:40.183Z,1.97
2019-05-14T10:11:07.116Z,2.20
2019-05-14T10:13:34.064Z,2.23
2019-05-14T10:16:01.060Z,1.80
2019-05-14T10:18:28.485Z,2.43
2019-05-14T10:20:55.590Z,1.90
2019-05-14T10:23:22.557Z,1.70
2019-05-14T10:25:49.493Z,1.90
2019-05-14T10:28:19.056Z,1.93
2019-05-14T10:30:45.463Z,2.27
2019-05-14T10:33:15.024Z,1.97
2019-05-14T10:35:41.594Z,2.10
2019-05-14T10:38:08.927Z,1.83
2019-05-14T10:40:38.213Z,2.33
2019-05-14T10:43:04.872Z,1.90
2019-05-14T10:45:31.894Z,2.53
2019-05-14T10:47:58.830Z,2.50
2019-05-14T10:50:25.788Z,2.50
2019-05-14T10:52:52.862Z,2.00
2019-05-14T10:55:19.818Z,1.63
2019-05-14T10:57:46.800Z,1.93
2019-05-14T11:00:14.205Z,2.00
2019-05-14T11:02:41.122Z,2.07
2019-05-14T11:05:08.395Z,2.37
2019-05-14T11:07:41.393Z,2.03
2019-05-14T11:10:09.037Z,1.67
2019-05-14T11:12:35.432Z,1.90
2019-05-14T11:15:02.447Z,2.53
2019-05-14T11:17:29.419Z,1.90
2019-05-14T11:19:58.542Z,2.30
2019-05-14T11:22:25.243Z,1.83
2019-05-14T11:24:52.208Z,1.90
2019-05-14T11:27:19.296Z,2.27
2019-05-14T11:29:48.871Z,2.00
2019-05-14T11:32:15.173Z,2.27
2019-05-14T11:34:42.145Z,2.13
2019-05-14T11:37:09.081Z,1.70
2019-05-14T11:39:37.963Z,2.40
2019-05-14T11:42:05.098Z,1.63
2019-05-14T11:44:32.060Z,1.93
2019-05-14T11:47:02.455Z,1.80
2019-05-14T11:49:27.877Z,1.97
2019-05-14T11:52:04.205Z,2.10
2019-05-14T11:54:23.732Z,2.00
2019-05-14T11:56:50.713Z,2.47
2019-05-14T11:59:18.956Z,2.87
2019-05-14T12:01:49.275Z,2.20
2019-05-14T12:04:15.865Z,1.93
2019-05-14T12:06:42.843Z,1.80
2019-05-14T12:09:11.870Z,2.30
2019-05-14T12:11:38.797Z,2.57
2019-05-14T12:14:08.577Z,1.93
2019-05-14T12:16:35.326Z,2.23
2019-05-14T12:19:02.366Z,1.73
2019-05-14T12:21:29.354Z,1.80
2019-05-14T12:24:03.152Z,2.00
2019-05-14T12:26:25.226Z,1.70
2019-05-14T12:28:55.903Z,1.53
2019-05-14T12:31:21.052Z,1.67
2019-05-14T12:33:48.873Z,1.53
2019-05-14T12:36:19.028Z,1.53
2019-05-14T12:38:45.029Z,1.40
2019-05-14T12:41:12.096Z,1.57
2019-05-14T12:43:39.825Z,1.40
2019-05-14T12:46:10.458Z,1.20
2019-05-14T12:48:39.039Z,1.10
2019-05-14T12:51:05.747Z,1.40
2019-05-14T12:53:32.698Z,1.60
2019-05-14T12:55:59.678Z,1.00
2019-05-14T12:58:28.515Z,1.73
2019-05-14T13:00:55.754Z,1.20
2019-05-14T13:03:22.720Z,1.47
2019-05-14T13:05:49.696Z,0.90
2019-05-14T13:08:18.432Z,1.40
2019-05-14T13:10:45.588Z,1.43
2019-05-14T13:13:12.605Z,1.30
2019-05-14T13:15:39.608Z,2.17
2019-05-14T13:18:08.702Z,1.07
2019-05-14T13:20:35.450Z,1.27
2019-05-14T13:23:02.389Z,1.20
2019-05-14T13:25:30.411Z,1.57
2019-05-14T13:27:59.435Z,1.10
2019-05-14T13:30:26.485Z,1.33
2019-05-14T13:32:53.490Z,1.20
2019-05-14T13:35:20.449Z,1.30
2019-05-14T13:37:49.113Z,1.27
2019-05-14T13:40:20.819Z,1.33
2019-05-14T13:42:45.643Z,1.50
2019-05-14T13:45:13.524Z,1.17
2019-05-14T13:47:40.514Z,1.40
2019-05-14T13:50:08.712Z,1.40
2019-05-14T13:52:38.704Z,1.17
2019-05-14T13:55:05.042Z,1.53
2019-05-14T13:57:32.019Z,1.67
2019-05-14T13:59:59.093Z,1.10
2019-05-14T14:02:28.865Z,1.23
2019-05-14T14:04:54.996Z,1.20
2019-05-14T14:07:21.945Z,1.30
2019-05-14T14:09:49.891Z,1.43
2019-05-14T14:12:17.009Z,1.03
2019-05-14T14:14:43.970Z,1.20
2019-05-14T14:17:10.949Z,0.97
2019-05-14T14:19:38.865Z,0.90
2019-05-14T14:22:06.006Z,0.90
2019-05-14T14:24:32.956Z,0.83
2019-05-14T14:26:59.994Z,1.00
2019-05-14T14:29:26.964Z,1.10
2019-05-14T14:31:53.981Z,1.20
2019-05-14T14:34:20.946Z,1.27
2019-05-14T14:36:50.017Z,1.00
2019-05-14T14:39:19.125Z,1.10
2019-05-14T14:41:45.727Z,1.20
2019-05-14T14:44:12.697Z,1.07
2019-05-14T14:46:39.675Z,1.20
2019-05-14T14:49:06.664Z,1.10
2019-05-14T14:51:33.608Z,0.83
2019-05-14T14:54:10.687Z,1.10
2019-05-14T14:56:31.281Z,1.03
2019-05-14T14:58:58.249Z,0.90
2019-05-14T15:01:25.323Z,1.00
2019-05-14T15:03:52.371Z,1.03
2019-05-14T15:06:19.371Z,1.00
2019-05-14T15:08:49.377Z,0.97
2019-05-14T15:11:15.241Z,0.83
2019-05-14T15:13:42.237Z,1.20
2019-05-14T15:16:13.526Z,0.90
2019-05-14T15:18:38.758Z,1.83
2019-05-14T15:21:05.946Z,1.13
2019-05-14T15:23:33.001Z,1.10
2019-05-14T15:25:59.965Z,1.10
2019-05-14T15:28:27.026Z,1.10
2019-05-14T15:30:53.996Z,1.00
2019-05-14T15:33:20.986Z,0.93
2019-05-14T15:35:49.065Z,1.23
2019-05-14T15:38:16.320Z,1.00
2019-05-14T15:40:43.254Z,1.30
2019-05-14T15:43:10.255Z,1.10
2019-05-14T15:45:37.894Z,1.20
2019-05-14T15:48:09.015Z,1.30
2019-05-14T15:50:38.776Z,0.77
2019-05-14T15:53:04.958Z,0.60
2019-05-14T15:55:31.904Z,1.30
2019-05-14T15:57:59.168Z,1.10
2019-05-14T16:00:28.998Z,1.17
2019-05-14T16:02:55.079Z,0.97
2019-05-14T16:05:22.076Z,1.07
2019-05-14T16:07:49.554Z,1.13
2019-05-14T16:10:16.899Z,1.00
2019-05-14T16:12:43.822Z,1.10
2019-05-14T16:15:10.814Z,0.90
2019-05-14T16:17:47.627Z,0.83
2019-05-14T16:20:08.967Z,1.10
2019-05-14T16:22:39.348Z,1.30
2019-05-14T16:25:05.010Z,1.00
2019-05-14T16:27:31.988Z,1.00
2019-05-14T16:29:58.980Z,0.70
2019-05-14T16:32:28.370Z,1.10
2019-05-14T16:34:54.807Z,1.10
2019-05-14T16:37:21.761Z,0.90
2019-05-14T16:39:49.058Z,1.07
2019-05-14T16:42:20.292Z,0.90
2019-05-14T16:44:44.963Z,0.70
2019-05-14T16:47:11.898Z,0.60
2019-05-14T16:49:38.902Z,1.10
2019-05-14T16:52:08.868Z,0.90
2019-05-14T16:54:34.717Z,1.17
2019-05-14T16:57:01.673Z,1.03
2019-05-14T16:59:29.567Z,1.20
2019-05-14T17:01:58.518Z,1.00
2019-05-14T17:04:25.693Z,1.00
2019-05-14T17:06:52.641Z,1.30
2019-05-14T17:09:19.626Z,1.10
2019-05-14T17:11:48.232Z,1.10
2019-05-14T17:14:15.250Z,1.00
2019-05-14T17:16:42.225Z,1.33
2019-05-14T17:19:09.379Z,0.97
2019-05-14T17:21:38.885Z,1.30
2019-05-14T17:24:05.374Z,0.83
2019-05-14T17:26:32.345Z,0.97
2019-05-14T17:28:59.769Z,1.10
2019-05-14T17:31:26.862Z,1.03
2019-05-14T17:33:53.812Z,1.10
2019-05-14T17:36:20.788Z,1.07
2019-05-14T17:38:49.163Z,1.00
2019-05-14T17:41:16.535Z,1.20
2019-05-14T17:43:43.489Z,0.80
2019-05-14T17:46:10.479Z,1.00
2019-05-14T17:48:39.107Z,1.10
2019-05-14T17:51:09.136Z,1.17
2019-05-14T17:53:35.341Z,0.70
2019-05-14T17:56:03.493Z,1.00
2019-05-14T17:58:30.429Z,1.10
2019-05-14T18:00:58.163Z,1.30
2019-05-14T18:03:25.263Z,0.97
2019-05-14T18:05:52.247Z,0.90
2019-05-14T18:08:19.189Z,1.10
2019-05-14T18:10:46.227Z,1.23
2019-05-14T18:13:13.179Z,0.90
2019-05-14T18:15:40.158Z,1.30
2019-05-14T18:18:08.879Z,1.30
2019-05-14T18:20:36.046Z,1.07
2019-05-14T18:23:02.980Z,1.00
2019-05-14T18:25:29.954Z,1.13
2019-05-14T18:27:56.936Z,0.70
2019-05-14T18:30:24.031Z,0.80
2019-05-14T18:32:50.983Z,0.70
2019-05-14T18:35:18.839Z,0.90
2019-05-14T18:37:48.137Z,1.17
2019-05-14T18:40:15.117Z,1.23
2019-05-14T18:42:42.075Z,0.97
2019-05-14T18:45:09.394Z,0.60
2019-05-14T18:47:36.340Z,0.80
2019-05-14T18:50:05.248Z,1.10
2019-05-14T18:52:32.176Z,1.10
2019-05-14T18:54:59.269Z,0.93
2019-05-14T18:57:28.513Z,0.93
2019-05-14T18:59:55.555Z,0.90
2019-05-14T19:02:22.964Z,0.70
2019-05-14T19:04:49.970Z,1.40
2019-05-14T19:07:18.927Z,1.00
2019-05-14T19:09:49.237Z,0.97
2019-05-14T19:12:16.011Z,0.80
2019-05-14T19:14:42.986Z,1.20
2019-05-14T19:17:09.976Z,1.20
2019-05-14T19:19:38.651Z,1.00
2019-05-14T19:22:05.795Z,1.50
2019-05-14T19:24:32.724Z,1.27
2019-05-14T19:26:59.706Z,1.30
2019-05-14T19:29:28.163Z,2.20
2019-05-14T19:31:55.342Z,1.67
2019-05-14T19:34:22.275Z,1.20
2019-05-14T19:36:49.253Z,1.40
2019-05-14T19:39:18.611Z,1.20
2019-05-14T19:41:45.134Z,1.30
2019-05-14T19:44:12.111Z,1.43
2019-05-14T19:46:39.084Z,1.57
2019-05-14T19:49:08.094Z,1.70
2019-05-14T19:51:34.904Z,1.50
2019-05-14T19:54:01.839Z,1.03
2019-05-14T19:56:29.422Z,2.20
2019-05-14T19:58:56.489Z,1.90
2019-05-14T20:01:23.457Z,1.33
2019-05-14T20:03:50.466Z,0.90
2019-05-14T20:06:18.728Z,1.60
2019-05-14T20:08:48.279Z,1.33
2019-05-14T20:11:14.850Z,1.80
2019-05-14T20:13:41.835Z,1.60
2019-05-14T20:16:08.816Z,1.10
2019-05-14T20:18:38.066Z,1.07
2019-05-14T20:21:04.659Z,1.27
2019-05-14T20:23:31.624Z,1.70
2019-05-14T20:25:58.775Z,1.30
2019-05-14T20:28:25.757Z,1.10
2019-05-14T20:30:52.733Z,1.67
2019-05-14T20:33:19.717Z,1.00
2019-05-14T20:35:48.555Z,1.30
2019-05-14T20:38:15.523Z,1.10
2019-05-14T20:40:42.445Z,1.13
2019-05-14T20:43:10.479Z,1.00
2019-05-14T20:45:39.077Z,1.73
2019-05-14T20:48:06.317Z,0.97
2019-05-14T20:50:33.318Z,1.23
2019-05-14T20:53:00.328Z,1.40
2019-05-14T20:55:28.644Z,1.50
2019-05-14T20:57:55.949Z,1.43
2019-05-14T21:00:22.888Z,1.40
2019-05-14T21:02:49.844Z,1.47
2019-05-14T21:05:18.754Z,1.80
2019-05-14T21:07:45.660Z,1.33
2019-05-14T21:10:13.596Z,1.50
2019-05-14T21:12:40.577Z,1.47
2019-05-14T21:15:08.969Z,1.40
2019-05-14T21:17:36.411Z,1.30
2019-05-14T21:20:03.605Z,1.60
2019-05-14T21:22:30.589Z,1.53
2019-05-14T21:24:57.514Z,1.47
2019-05-14T21:27:38.577Z,1.40
2019-05-14T21:29:53.322Z,2.03
2019-05-14T21:32:20.269Z,1.73
2019-05-14T21:34:49.171Z,1.37
2019-05-14T21:37:18.618Z,1.30
2019-05-14T21:39:44.955Z,1.17
2019-05-14T21:42:11.877Z,1.23
2019-05-14T21:44:39.294Z,1.20
2019-05-14T21:47:08.256Z,1.30
2019-05-14T21:49:35.167Z,1.00
2019-05-14T21:52:02.117Z,1.10
2019-05-14T21:54:31.087Z,1.07
2019-05-14T21:56:58.734Z,0.97
2019-05-14T21:59:28.002Z,1.53
2019-05-14T22:01:54.565Z,1.20
2019-05-14T22:04:21.541Z,1.23
2019-05-14T22:06:49.071Z,1.10
2019-05-14T22:09:16.160Z,1.33
2019-05-14T22:11:43.101Z,0.80
2019-05-14T22:14:10.073Z,0.90
2019-05-14T22:16:38.168Z,1.17
2019-05-14T22:19:05.450Z,1.30
2019-05-14T22:21:32.407Z,1.30
2019-05-14T22:23:59.411Z,1.50
2019-05-14T22:26:28.210Z,1.27
2019-05-14T22:28:55.247Z,1.10
2019-05-14T22:31:22.186Z,1.10
2019-05-14T22:33:49.144Z,1.40
2019-05-14T22:36:20.896Z,1.30
2019-05-14T22:38:45.011Z,1.10
2019-05-14T22:41:11.956Z,1.23
2019-05-14T22:43:38.975Z,1.23
2019-05-14T22:46:08.316Z,1.30
2019-05-14T22:48:34.793Z,1.40
2019-05-14T22:51:01.728Z,1.20
2019-05-14T22:53:30.429Z,1.00
2019-05-14T22:55:58.616Z,1.03
2019-05-14T22:58:26.075Z,1.43
2019-05-14T23:01:06.722Z,1.23
2019-05-14T23:03:22.511Z,1.70
2019-05-14T23:05:49.475Z,1.13
2019-05-14T23:08:18.441Z,1.37
2019-05-14T23:10:45.322Z,1.10
2019-05-14T23:13:12.264Z,1.30
2019-05-14T23:15:39.244Z,1.57
2019-05-14T23:18:08.143Z,1.30
2019-05-14T23:20:35.062Z,1.37
2019-05-14T23:23:01.996Z,1.30
2019-05-14T23:25:29.318Z,1.37
2019-05-14T23:27:58.742Z,1.77
2019-05-14T23:30:32.274Z,1.43
2019-05-14T23:32:59.357Z,1.50
2019-05-14T23:35:28.332Z,1.63
2019-05-14T23:37:55.353Z,1.10
2019-05-14T23:40:22.414Z,1.80
2019-05-14T23:42:49.373Z,2.10
2019-05-14T23:45:18.810Z,1.73
2019-05-14T23:47:45.205Z,2.00
2019-05-14T23:50:12.181Z,2.40
2019-05-14T23:52:39.124Z,2.20
2019-05-14T23:55:08.618Z,1.97
2019-05-14T23:57:35.264Z,2.23
